sensor_id;sensor_type;location;lat;lon;timestamp;pressure;altitude;pressure_sealevel;temperature;humidity
54407;BME280;40313;50.308;30.374;2023-01-25T00:01:23;101415.31;;;-3.02;100.00
54407;BME280;40313;50.308;30.374;2023-01-25T00:03:49;101405.78;;;-3.08;100.00
54407;BME280;40313;50.308;30.374;2023-01-25T00:06:15;101420.34;;;-3.05;100.00
54407;BME280;40313;50.308;30.374;2023-01-25T00:08:42;101413.47;;;-3.08;100.00
54407;BME280;40313;50.308;30.374;2023-01-25T00:11:08;101417.75;;;-3.07;100.00
54407;BME280;40313;50.308;30.374;2023-01-25T00:13:34;101423.63;;;-3.09;100.00
54407;BME280;40313;50.308;30.374;2023-01-25T00:16:02;101413.38;;;-3.11;100.00
54407;BME280;40313;50.308;30.374;2023-01-25T00:18:29;101418.47;;;-3.11;100.00
54407;BME280;40313;50.308;30.374;2023-01-25T00:20:55;101418.47;;;-3.11;100.00
54407;BME280;40313;50.308;30.374;2023-01-25T00:23:22;101416.66;;;-3.15;100.00
54407;BME280;40313;50.308;30.374;2023-01-25T00:25:48;101407.25;;;-3.16;100.00
54407;BME280;40313;50.308;30.374;2023-01-25T00:28:21;101412.19;;;-3.22;100.00
54407;BME280;40313;50.308;30.374;2023-01-25T00:30:47;101412.88;;;-3.28;100.00
54407;BME280;40313;50.308;30.374;2023-01-25T00:33:32;101409.53;;;-3.27;100.00
54407;BME280;40313;50.308;30.374;2023-01-25T00:35:59;101405.28;;;-3.26;100.00
54407;BME280;40313;50.308;30.374;2023-01-25T00:38:26;101403.63;;;-3.24;100.00
54407;BME280;40313;50.308;30.374;2023-01-25T00:40:54;101400.16;;;-3.26;100.00
54407;BME280;40313;50.308;30.374;2023-01-25T00:43:20;101391.50;;;-3.32;100.00
54407;BME280;40313;50.308;30.374;2023-01-25T00:45:46;101390.56;;;-3.35;100.00
54407;BME280;40313;50.308;30.374;2023-01-25T00:48:13;101381.97;;;-3.37;100.00
54407;BME280;40313;50.308;30.374;2023-01-25T00:50:41;101389.59;;;-3.39;100.00
54407;BME280;40313;50.308;30.374;2023-01-25T00:53:07;101384.50;;;-3.39;100.00
54407;BME280;40313;50.308;30.374;2023-01-25T00:55:33;101381.91;;;-3.40;100.00
54407;BME280;40313;50.308;30.374;2023-01-25T00:58:00;101379.31;;;-3.42;100.00
54407;BME280;40313;50.308;30.374;2023-01-25T01:00:26;101381.00;;;-3.42;100.00
54407;BME280;40313;50.308;30.374;2023-01-25T01:02:52;101383.59;;;-3.41;100.00
54407;BME280;40313;50.308;30.374;2023-01-25T01:05:19;101376.81;;;-3.40;100.00
54407;BME280;40313;50.308;30.374;2023-01-25T01:07:48;101373.53;;;-3.36;100.00
54407;BME280;40313;50.308;30.374;2023-01-25T01:10:15;101371.91;;;-3.34;100.00
54407;BME280;40313;50.308;30.374;2023-01-25T01:12:41;101374.50;;;-3.33;100.00
54407;BME280;40313;50.308;30.374;2023-01-25T01:15:08;101377.94;;;-3.31;100.00
54407;BME280;40313;50.308;30.374;2023-01-25T01:17:34;101371.94;;;-3.33;100.00
54407;BME280;40313;50.308;30.374;2023-01-25T01:20:01;101381.41;;;-3.28;100.00
54407;BME280;40313;50.308;30.374;2023-01-25T01:22:27;101384.00;;;-3.27;100.00
54407;BME280;40313;50.308;30.374;2023-01-25T01:24:55;101384.00;;;-3.27;100.00
54407;BME280;40313;50.308;30.374;2023-01-25T01:27:21;101376.88;;;-3.37;100.00
54407;BME280;40313;50.308;30.374;2023-01-25T01:29:47;101363.34;;;-3.35;100.00
54407;BME280;40313;50.308;30.374;2023-01-25T01:32:13;101366.00;;;-3.32;100.00
54407;BME280;40313;50.308;30.374;2023-01-25T01:34:40;101369.47;;;-3.30;100.00
54407;BME280;40313;50.308;30.374;2023-01-25T01:37:06;101373.78;;;-3.27;100.00
54407;BME280;40313;50.308;30.374;2023-01-25T01:39:32;101371.25;;;-3.27;100.00
54407;BME280;40313;50.308;30.374;2023-01-25T01:42:00;101366.00;;;-3.32;100.00
54407;BME280;40313;50.308;30.374;2023-01-25T01:44:41;101370.28;;;-3.31;100.00
54407;BME280;40313;50.308;30.374;2023-01-25T06:13:59;101361.50;;;-3.98;100.00
54407;BME280;40313;50.308;30.374;2023-01-25T06:16:25;101363.28;;;-3.95;100.00
54407;BME280;40313;50.308;30.374;2023-01-25T06:18:52;101359.00;;;-3.96;100.00
54407;BME280;40313;50.308;30.374;2023-01-25T06:21:18;101347.28;;;-3.91;100.00
54407;BME280;40313;50.308;30.374;2023-01-25T06:23:45;101345.66;;;-3.88;100.00
54407;BME280;40313;50.308;30.374;2023-01-25T06:26:13;101351.72;;;-3.84;100.00
54407;BME280;40313;50.308;30.374;2023-01-25T06:28:40;101349.34;;;-3.78;100.00
54407;BME280;40313;50.308;30.374;2023-01-25T06:31:10;101349.44;;;-3.75;100.00
54407;BME280;40313;50.308;30.374;2023-01-25T06:33:37;101347.88;;;-3.71;100.00
54407;BME280;40313;50.308;30.374;2023-01-25T06:36:06;101340.25;;;-3.70;100.00
54407;BME280;40313;50.308;30.374;2023-01-25T06:38:33;101350.66;;;-3.62;100.00
54407;BME280;40313;50.308;30.374;2023-01-25T06:41:00;101358.44;;;-3.57;100.00
54407;BME280;40313;50.308;30.374;2023-01-25T06:43:27;101354.31;;;-3.54;100.00
54407;BME280;40313;50.308;30.374;2023-01-25T06:45:58;101355.25;;;-3.50;100.00
54407;BME280;40313;50.308;30.374;2023-01-25T06:48:26;101351.13;;;-3.47;100.00
54407;BME280;40313;50.308;30.374;2023-01-25T06:50:54;101349.56;;;-3.41;100.00
54407;BME280;40313;50.308;30.374;2023-01-25T06:53:21;101354.00;;;-3.36;100.00
54407;BME280;40313;50.308;30.374;2023-01-25T06:55:47;101357.44;;;-3.34;100.00
54407;BME280;40313;50.308;30.374;2023-01-25T06:58:14;101353.84;;;-3.40;100.00
54407;BME280;40313;50.308;30.374;2023-01-25T07:00:40;101347.91;;;-3.39;100.00
54407;BME280;40313;50.308;30.374;2023-01-25T07:03:07;101347.09;;;-3.38;100.00
54407;BME280;40313;50.308;30.374;2023-01-25T07:05:35;101340.38;;;-3.35;100.00
54407;BME280;40313;50.308;30.374;2023-01-25T07:08:01;101342.81;;;-3.39;100.00
54407;BME280;40313;50.308;30.374;2023-01-25T07:10:28;101346.22;;;-3.39;100.00
54407;BME280;40313;50.308;30.374;2023-01-25T07:12:54;101340.38;;;-3.35;100.00
54407;BME280;40313;50.308;30.374;2023-01-25T07:15:21;101349.78;;;-3.34;100.00
54407;BME280;40313;50.308;30.374;2023-01-25T07:17:48;101333.66;;;-3.33;100.00
54407;BME280;40313;50.308;30.374;2023-01-25T07:20:14;101337.09;;;-3.31;100.00
54407;BME280;40313;50.308;30.374;2023-01-25T07:22:42;101332.03;;;-3.29;100.00
54407;BME280;40313;50.308;30.374;2023-01-25T07:25:09;101332.16;;;-3.24;100.00
54407;BME280;40313;50.308;30.374;2023-01-25T07:27:35;101324.63;;;-3.21;100.00
54407;BME280;40313;50.308;30.374;2023-01-25T07:30:02;101335.78;;;-3.16;100.00
54407;BME280;40313;50.308;30.374;2023-01-25T07:32:29;101342.72;;;-3.12;100.00
54407;BME280;40313;50.308;30.374;2023-01-25T07:34:56;101330.06;;;-3.07;100.00
54407;BME280;40313;50.308;30.374;2023-01-25T07:37:22;101331.03;;;-3.04;100.00
54407;BME280;40313;50.308;30.374;2023-01-25T07:39:50;101309.75;;;-3.04;100.00
54407;BME280;40313;50.308;30.374;2023-01-25T07:42:17;101322.63;;;-3.00;100.00
54407;BME280;40313;50.308;30.374;2023-01-25T07:44:43;101309.88;;;-3.00;100.00
54407;BME280;40313;50.308;30.374;2023-01-25T07:47:10;101310.69;;;-3.01;100.00
54407;BME280;40313;50.308;30.374;2023-01-25T07:49:36;101317.47;;;-3.01;100.00
54407;BME280;40313;50.308;30.374;2023-01-25T07:52:03;101327.72;;;-3.00;100.00
54407;BME280;40313;50.308;30.374;2023-01-25T07:54:30;101321.84;;;-2.97;100.00
54407;BME280;40313;50.308;30.374;2023-01-25T07:56:57;101317.63;;;-2.95;100.00
54407;BME280;40313;50.308;30.374;2023-01-25T07:59:24;101321.16;;;-2.91;100.00
54407;BME280;40313;50.308;30.374;2023-01-25T08:01:51;101316.94;;;-2.89;100.00
54407;BME280;40313;50.308;30.374;2023-01-25T08:04:18;101319.56;;;-2.86;100.00
54407;BME280;40313;50.308;30.374;2023-01-25T08:06:44;101321.28;;;-2.85;100.00
54407;BME280;40313;50.308;30.374;2023-01-25T08:09:13;101324.75;;;-2.83;100.00
54407;BME280;40313;50.308;30.374;2023-01-25T08:11:41;101324.81;;;-2.80;100.00
54407;BME280;40313;50.308;30.374;2023-01-25T08:14:09;101321.50;;;-2.76;100.00
54407;BME280;40313;50.308;30.374;2023-01-25T08:16:35;101309.69;;;-2.72;100.00
54407;BME280;40313;50.308;30.374;2023-01-25T08:19:02;101306.19;;;-2.76;100.00
54407;BME280;40313;50.308;30.374;2023-01-25T08:21:30;101315.13;;;-2.93;100.00
54407;BME280;40313;50.308;30.374;2023-01-25T08:23:59;101304.81;;;-2.97;100.00
54407;BME280;40313;50.308;30.374;2023-01-25T08:26:26;101308.38;;;-2.91;100.00
54407;BME280;40313;50.308;30.374;2023-01-25T08:28:53;101319.34;;;-2.96;100.00
54407;BME280;40313;50.308;30.374;2023-01-25T08:31:23;101319.44;;;-2.91;100.00
54407;BME280;40313;50.308;30.374;2023-01-25T08:33:51;101321.78;;;-2.99;100.00
54407;BME280;40313;50.308;30.374;2023-01-25T08:36:18;101323.44;;;-3.01;100.00
54407;BME280;40313;50.308;30.374;2023-01-25T08:38:45;101321.00;;;-2.96;100.00
54407;BME280;40313;50.308;30.374;2023-01-25T08:41:14;101319.34;;;-2.96;100.00
54407;BME280;40313;50.308;30.374;2023-01-25T08:43:41;101318.41;;;-2.98;100.00
54407;BME280;40313;50.308;30.374;2023-01-25T08:46:08;101320.16;;;-2.97;100.00
54407;BME280;40313;50.308;30.374;2023-01-25T08:48:36;101319.38;;;-2.94;100.00
54407;BME280;40313;50.308;30.374;2023-01-25T08:51:03;101320.19;;;-2.95;100.00
54407;BME280;40313;50.308;30.374;2023-01-25T08:53:30;101319.34;;;-2.96;100.00
54407;BME280;40313;50.308;30.374;2023-01-25T08:56:02;101319.38;;;-2.94;100.00
54407;BME280;40313;50.308;30.374;2023-01-25T08:58:29;101318.44;;;-2.96;100.00
54407;BME280;40313;50.308;30.374;2023-01-25T09:01:00;101316.84;;;-2.92;100.00
54407;BME280;40313;50.308;30.374;2023-01-25T09:03:27;101312.22;;;-3.06;100.00
54407;BME280;40313;50.308;30.374;2023-01-25T09:05:55;101322.38;;;-3.09;100.00
54407;BME280;40313;50.308;30.374;2023-01-25T09:08:22;101317.34;;;-3.06;100.00
54407;BME280;40313;50.308;30.374;2023-01-25T09:10:48;101325.69;;;-3.12;100.00
54407;BME280;40313;50.308;30.374;2023-01-25T09:13:15;101315.44;;;-3.13;100.00
54407;BME280;40313;50.308;30.374;2023-01-25T09:15:41;101312.16;;;-3.09;100.00
54407;BME280;40313;50.308;30.374;2023-01-25T09:18:08;101305.50;;;-3.04;100.00
54407;BME280;40313;50.308;30.374;2023-01-25T09:20:37;101315.84;;;-2.98;100.00
54407;BME280;40313;50.308;30.374;2023-01-25T09:23:05;101310.09;;;-2.90;100.00
54407;BME280;40313;50.308;30.374;2023-01-25T09:25:32;101302.59;;;-2.84;100.00
54407;BME280;40313;50.308;30.374;2023-01-25T09:27:59;101302.75;;;-2.78;100.00
54407;BME280;40313;50.308;30.374;2023-01-25T09:30:26;101306.28;;;-2.73;100.00
54407;BME280;40313;50.308;30.374;2023-01-25T09:32:53;101308.09;;;-2.67;100.00
54407;BME280;40313;50.308;30.374;2023-01-25T09:35:19;101304.00;;;-2.62;100.00
54407;BME280;40313;50.308;30.374;2023-01-25T09:37:50;101307.50;;;-2.58;100.00
54407;BME280;40313;50.308;30.374;2023-01-25T09:40:21;101306.72;;;-2.54;100.00
54407;BME280;40313;50.308;30.374;2023-01-25T09:42:57;101300.72;;;-2.56;100.00
54407;BME280;40313;50.308;30.374;2023-01-25T09:45:30;101300.56;;;-2.63;100.00
54407;BME280;40313;50.308;30.374;2023-01-25T09:48:12;101300.41;;;-2.69;100.00
54407;BME280;40313;50.308;30.374;2023-01-25T09:50:58;101296.22;;;-2.67;100.00
54407;BME280;40313;50.308;30.374;2023-01-25T09:53:32;101296.34;;;-2.61;100.00
54407;BME280;40313;50.308;30.374;2023-01-25T09:56:03;101283.69;;;-2.56;100.00
54407;BME280;40313;50.308;30.374;2023-01-25T09:58:36;101283.78;;;-2.53;100.00
54407;BME280;40313;50.308;30.374;2023-01-25T10:01:24;101293.28;;;-2.47;100.00
54407;BME280;40313;50.308;30.374;2023-01-25T14:34:36;101095.69;;;-3.92;100.00
54407;BME280;40313;50.308;30.374;2023-01-25T14:37:04;101099.28;;;-3.86;100.00
54407;BME280;40313;50.308;30.374;2023-01-25T14:39:32;101098.56;;;-3.80;100.00
54407;BME280;40313;50.308;30.374;2023-01-25T14:41:58;101089.25;;;-3.78;100.00
54407;BME280;40313;50.308;30.374;2023-01-25T14:44:25;101094.38;;;-3.78;100.00
54407;BME280;40313;50.308;30.374;2023-01-25T14:47:18;101084.25;;;-3.75;100.00
54407;BME280;40313;50.308;30.374;2023-01-25T14:49:44;101095.34;;;-3.73;100.00
54407;BME280;40313;50.308;30.374;2023-01-25T14:52:11;101088.59;;;-3.71;100.00
54407;BME280;40313;50.308;30.374;2023-01-25T14:54:43;101095.41;;;-3.71;100.00
54407;BME280;40313;50.308;30.374;2023-01-25T14:57:20;101096.28;;;-3.69;100.00
54407;BME280;40313;50.308;30.374;2023-01-25T14:59:51;101096.34;;;-3.66;100.00
54407;BME280;40313;50.308;30.374;2023-01-25T15:02:25;101091.28;;;-3.65;100.00
54407;BME280;40313;50.308;30.374;2023-01-25T15:04:55;101085.38;;;-3.63;100.00
54407;BME280;40313;50.308;30.374;2023-01-25T15:07:31;101086.19;;;-3.65;100.00
54407;BME280;40313;50.308;30.374;2023-01-25T15:09:59;101083.41;;;-3.74;100.00
54407;BME280;40313;50.308;30.374;2023-01-25T15:12:27;101088.44;;;-3.77;100.00
54407;BME280;40313;50.308;30.374;2023-01-25T15:14:54;101090.94;;;-3.80;100.00
54407;BME280;40313;50.308;30.374;2023-01-25T15:17:37;101087.31;;;-3.88;100.00
54407;BME280;40313;50.308;30.374;2023-01-25T15:20:20;101083.94;;;-3.87;100.00
54407;BME280;40313;50.308;30.374;2023-01-25T15:22:50;101075.38;;;-3.89;100.00
54407;BME280;40313;50.308;30.374;2023-01-25T15:25:17;101078.84;;;-3.87;100.00
54407;BME280;40313;50.308;30.374;2023-01-25T15:27:43;101077.09;;;-3.88;100.00
54407;BME280;40313;50.308;30.374;2023-01-25T15:30:10;101072.84;;;-3.88;100.00
54407;BME280;40313;50.308;30.374;2023-01-25T15:32:37;101066.13;;;-3.86;100.00
54407;BME280;40313;50.308;30.374;2023-01-25T15:35:07;101073.84;;;-3.83;100.00
54407;BME280;40313;50.308;30.374;2023-01-25T15:37:36;101068.66;;;-3.87;100.00
54407;BME280;40313;50.308;30.374;2023-01-25T15:40:03;101071.09;;;-3.90;100.00
54407;BME280;40313;50.308;30.374;2023-01-25T15:42:30;101070.19;;;-3.92;100.00
54407;BME280;40313;50.308;30.374;2023-01-25T15:44:56;101066.84;;;-3.91;100.00
54407;BME280;40313;50.308;30.374;2023-01-25T15:47:23;101066.50;;;-4.04;100.00
54407;BME280;40313;50.308;30.374;2023-01-25T15:49:49;101069.94;;;-4.02;100.00
54407;BME280;40313;50.308;30.374;2023-01-25T15:52:19;101069.16;;;-3.99;100.00
54407;BME280;40313;50.308;30.374;2023-01-25T15:54:45;101064.94;;;-3.98;100.00
54407;BME280;40313;50.308;30.374;2023-01-25T15:57:14;101065.84;;;-3.96;100.00
54407;BME280;40313;50.308;30.374;2023-01-25T15:59:43;101060.75;;;-3.96;100.00
54407;BME280;40313;50.308;30.374;2023-01-25T16:02:09;101061.63;;;-3.94;100.00
54407;BME280;40313;50.308;30.374;2023-01-25T16:04:36;101060.00;;;-3.92;100.00
54407;BME280;40313;50.308;30.374;2023-01-25T16:07:03;101060.81;;;-3.93;100.00
54407;BME280;40313;50.308;30.374;2023-01-25T16:09:31;101052.31;;;-3.94;100.00
54407;BME280;40313;50.308;30.374;2023-01-25T16:11:58;101053.97;;;-3.94;100.00
54407;BME280;40313;50.308;30.374;2023-01-25T16:14:26;101053.16;;;-3.93;100.00
54407;BME280;40313;50.308;30.374;2023-01-25T16:16:53;101050.59;;;-3.95;100.00
54407;BME280;40313;50.308;30.374;2023-01-25T16:19:20;101048.88;;;-3.94;100.00
54407;BME280;40313;50.308;30.374;2023-01-25T16:21:47;101042.13;;;-3.94;100.00
54407;BME280;40313;50.308;30.374;2023-01-25T16:24:14;101051.53;;;-3.91;100.00
54407;BME280;40313;50.308;30.374;2023-01-25T16:26:43;101053.28;;;-3.89;100.00
54407;BME280;40313;50.308;30.374;2023-01-25T16:29:10;101054.16;;;-3.88;100.00
54407;BME280;40313;50.308;30.374;2023-01-25T16:31:37;101055.06;;;-3.86;100.00
54407;BME280;40313;50.308;30.374;2023-01-25T16:34:04;101051.69;;;-3.85;100.00
54407;BME280;40313;50.308;30.374;2023-01-25T16:36:30;101048.41;;;-3.81;100.00
54407;BME280;40313;50.308;30.374;2023-01-25T16:39:04;101044.19;;;-3.79;100.00
54407;BME280;40313;50.308;30.374;2023-01-25T16:41:31;101050.19;;;-3.77;100.00
54407;BME280;40313;50.308;30.374;2023-01-25T16:43:58;101049.34;;;-3.76;100.00
54407;BME280;40313;50.308;30.374;2023-01-25T16:46:25;101042.47;;;-3.80;100.00
54407;BME280;40313;50.308;30.374;2023-01-25T16:48:51;101036.38;;;-3.85;100.00
54407;BME280;40313;50.308;30.374;2023-01-25T16:51:19;101043.16;;;-3.87;100.00
54407;BME280;40313;50.308;30.374;2023-01-25T16:53:46;101041.38;;;-3.90;100.00
54407;BME280;40313;50.308;30.374;2023-01-25T16:56:16;101048.16;;;-3.90;100.00
54407;BME280;40313;50.308;30.374;2023-01-25T16:58:42;101045.59;;;-3.90;100.00
54407;BME280;40313;50.308;30.374;2023-01-25T17:01:10;101049.03;;;-3.90;100.00
54407;BME280;40313;50.308;30.374;2023-01-25T17:03:37;101042.09;;;-3.95;100.00
54407;BME280;40313;50.308;30.374;2023-01-25T17:06:04;101042.94;;;-3.95;100.00
54407;BME280;40313;50.308;30.374;2023-01-25T17:08:31;101041.31;;;-3.93;100.00
54407;BME280;40313;50.308;30.374;2023-01-25T17:11:01;101040.47;;;-3.92;100.00
54407;BME280;40313;50.308;30.374;2023-01-25T17:13:27;101044.75;;;-3.91;100.00
54407;BME280;40313;50.308;30.374;2023-01-25T17:15:54;101033.72;;;-3.90;100.00
54407;BME280;40313;50.308;30.374;2023-01-25T17:18:22;101037.97;;;-3.89;100.00
54407;BME280;40313;50.308;30.374;2023-01-25T17:20:54;101041.44;;;-3.87;100.00
54407;BME280;40313;50.308;30.374;2023-01-25T17:23:21;101043.19;;;-3.86;100.00
54407;BME280;40313;50.308;30.374;2023-01-25T17:25:47;101045.75;;;-3.86;100.00
54407;BME280;40313;50.308;30.374;2023-01-25T17:28:13;101033.84;;;-3.85;100.00
54407;BME280;40313;50.308;30.374;2023-01-25T17:30:40;101038.13;;;-3.84;100.00
54407;BME280;40313;50.308;30.374;2023-01-25T17:33:06;101035.63;;;-3.83;100.00
54407;BME280;40313;50.308;30.374;2023-01-25T17:35:34;101028.75;;;-3.85;100.00
54407;BME280;40313;50.308;30.374;2023-01-25T17:38:01;101029.44;;;-3.91;100.00
54407;BME280;40313;50.308;30.374;2023-01-25T17:40:27;101036.78;;;-4.03;100.00
54407;BME280;40313;50.308;30.374;2023-01-25T17:42:54;101027.22;;;-4.12;100.00
54407;BME280;40313;50.308;30.374;2023-01-25T17:45:20;101026.34;;;-4.12;100.00
54407;BME280;40313;50.308;30.374;2023-01-25T17:47:46;101017.09;;;-4.09;100.00
54407;BME280;40313;50.308;30.374;2023-01-25T17:50:13;101019.66;;;-4.07;100.00
54407;BME280;40313;50.308;30.374;2023-01-25T17:52:40;101020.63;;;-4.04;100.00
54407;BME280;40313;50.308;30.374;2023-01-25T17:55:07;101018.97;;;-4.02;100.00
54407;BME280;40313;50.308;30.374;2023-01-25T17:57:33;101017.31;;;-4.01;100.00
54407;BME280;40313;50.308;30.374;2023-01-25T18:00:01;101022.44;;;-4.00;100.00
54407;BME280;40313;50.308;30.374;2023-01-25T22:41:26;100906.16;;;-4.29;100.00
54407;BME280;40313;50.308;30.374;2023-01-25T22:43:53;100912.16;;;-4.27;100.00
54407;BME280;40313;50.308;30.374;2023-01-25T22:46:21;100911.41;;;-4.23;100.00
54407;BME280;40313;50.308;30.374;2023-01-25T22:48:49;100902.94;;;-4.22;100.00
54407;BME280;40313;50.308;30.374;2023-01-25T22:51:17;100904.75;;;-4.18;100.00
54407;BME280;40313;50.308;30.374;2023-01-25T22:53:45;100899.72;;;-4.15;100.00
54407;BME280;40313;50.308;30.374;2023-01-25T22:56:14;100898.03;;;-4.14;100.00
54407;BME280;40313;50.308;30.374;2023-01-25T22:58:43;100895.59;;;-4.10;100.00
54407;BME280;40313;50.308;30.374;2023-01-25T23:04:03;100888.09;;;-4.04;100.00
54407;BME280;40313;50.308;30.374;2023-01-25T23:06:31;100888.13;;;-4.02;100.00
54407;BME280;40313;50.308;30.374;2023-01-25T23:09:00;100886.53;;;-3.98;100.00
54407;BME280;40313;50.308;30.374;2023-01-25T23:11:29;100886.59;;;-3.95;100.00
54407;BME280;40313;50.308;30.374;2023-01-25T23:14:01;100885.81;;;-3.93;100.00
54407;BME280;40313;50.308;30.374;2023-01-25T23:16:45;100883.28;;;-3.91;100.00
54407;BME280;40313;50.308;30.374;2023-01-25T23:19:12;100882.44;;;-3.90;100.00
54407;BME280;40313;50.308;30.374;2023-01-25T23:21:38;100881.63;;;-3.89;100.00
54407;BME280;40313;50.308;30.374;2023-01-25T23:24:06;100886.78;;;-3.86;100.00
54407;BME280;40313;50.308;30.374;2023-01-25T23:26:34;100885.16;;;-3.84;100.00
54407;BME280;40313;50.308;30.374;2023-01-25T23:29:06;100884.41;;;-3.80;100.00
54407;BME280;40313;50.308;30.374;2023-01-25T23:31:33;100879.31;;;-3.80;100.00
54407;BME280;40313;50.308;30.374;2023-01-25T23:34:02;100883.56;;;-3.79;100.00
54407;BME280;40313;50.308;30.374;2023-01-25T23:36:31;100881.88;;;-3.78;100.00
54407;BME280;40313;50.308;30.374;2023-01-25T23:38:58;100872.56;;;-3.76;100.00
54407;BME280;40313;50.308;30.374;2023-01-25T23:41:27;100873.41;;;-3.76;100.00
54407;BME280;40313;50.308;30.374;2023-01-25T23:43:54;100872.56;;;-3.76;100.00
54407;BME280;40313;50.308;30.374;2023-01-25T23:46:23;100869.19;;;-3.75;100.00
54407;BME280;40313;50.308;30.374;2023-01-25T23:48:51;100875.16;;;-3.75;100.00
54407;BME280;40313;50.308;30.374;2023-01-25T23:51:18;100864.09;;;-3.75;100.00
54407;BME280;40313;50.308;30.374;2023-01-25T23:53:45;100855.56;;;-3.76;100.00
54407;BME280;40313;50.308;30.374;2023-01-25T23:56:13;100855.69;;;-3.71;100.00
54407;BME280;40313;50.308;30.374;2023-01-25T23:58:41;100865.06;;;-3.69;100.00
